Time;durP1;ratioP1;P1;durP2;ratioP2;P2;SDS_P1;SDS_P2;PMS_P1;PMS_P2;Temp;Humidity;BMP_temperature;BMP_pressure;BME280_temperature;BME280_humidity;BME280_pressure;Samples;Min_cycle;Max_cycle;Signal;HPM_P1;HPM_P2
2022/11/06 00:00:34;;;;;;;38.50;19.27;;;18.20;95.60;;;;;;6119448;23;20173;-76
2022/11/06 00:03:03;;;;;;;36.33;17.80;;;18.10;95.90;;;;;;6124324;23;20216;-77
2022/11/06 00:08:26;;;;;;;32.93;17.13;;;18.20;95.70;;;;;;6123646;23;20161;-77
2022/11/06 00:10:55;;;;;;;39.57;17.63;;;18.10;95.80;;;;;;6123384;23;20618;-78
2022/11/06 00:13:25;;;;;;;37.40;18.10;;;18.20;95.70;;;;;;6122326;23;20665;-77
2022/11/06 00:15:53;;;;;;;34.57;18.50;;;18.20;95.90;;;;;;6121328;23;20181;-76
2022/11/06 00:18:21;;;;;;;38.83;17.57;;;18.10;95.70;;;;;;6122659;23;20741;-78
2022/11/06 00:20:49;;;;;;;39.47;18.67;;;18.20;95.60;;;;;;6123076;23;20174;-78
2022/11/06 00:23:18;;;;;;;38.20;19.07;;;18.20;95.70;;;;;;6122394;23;20180;-79
2022/11/06 00:25:46;;;;;;;39.97;18.23;;;18.20;95.60;;;;;;6121986;23;20173;-77
2022/11/06 00:28:14;;;;;;;30.47;18.03;;;18.20;95.60;;;;;;6123150;23;20200;-76
2022/11/06 00:30:44;;;;;;;41.20;19.03;;;18.20;95.60;;;;;;6121689;23;20208;-78
2022/11/06 00:33:13;;;;;;;37.90;19.73;;;18.20;95.60;;;;;;6121049;23;21227;-77
2022/11/06 00:35:41;;;;;;;35.50;19.50;;;18.20;95.70;;;;;;6123004;23;20229;-76
2022/11/06 00:38:10;;;;;;;42.77;18.67;;;18.20;95.80;;;;;;6124443;23;20201;-78
2022/11/06 00:40:38;;;;;;;38.87;20.53;;;18.20;95.70;;;;;;6121497;23;20559;-77
2022/11/06 00:43:06;;;;;;;40.87;19.60;;;18.20;95.70;;;;;;6123742;23;20231;-77
2022/11/06 00:45:35;;;;;;;34.17;18.80;;;18.20;95.80;;;;;;6120820;23;20177;-78
2022/11/06 00:48:05;;;;;;;35.40;18.90;;;18.20;95.70;;;;;;6121475;23;20177;-75
2022/11/06 00:50:33;;;;;;;37.30;19.17;;;18.20;95.80;;;;;;6123785;23;20673;-76
2022/11/06 00:53:02;;;;;;;37.90;18.90;;;18.20;95.80;;;;;;6123396;23;20173;-78
2022/11/06 00:55:30;;;;;;;41.87;18.97;;;18.20;95.70;;;;;;6123618;23;20244;-75
2022/11/06 00:57:58;;;;;;;42.97;19.70;;;18.20;95.80;;;;;;6118126;23;20173;-76
2022/11/06 01:00:26;;;;;;;38.93;19.97;;;18.10;95.80;;;;;;6118497;23;20627;-77
2022/11/06 01:02:56;;;;;;;40.53;18.53;;;18.20;95.90;;;;;;6123925;23;20205;-78
2022/11/06 01:05:26;;;;;;;39.17;20.10;;;18.20;95.90;;;;;;6121906;23;20166;-77
2022/11/06 01:07:55;;;;;;;37.40;19.43;;;18.20;95.90;;;;;;6123320;23;20173;-77
2022/11/06 01:10:23;;;;;;;40.07;19.67;;;18.20;96.00;;;;;;6121879;23;20267;-78
2022/11/06 01:12:51;;;;;;;39.73;19.27;;;18.20;96.00;;;;;;6122948;23;20200;-78
2022/11/06 01:15:20;;;;;;;43.40;20.63;;;18.20;95.90;;;;;;6121126;23;20193;-79
2022/11/06 01:17:48;;;;;;;40.37;19.07;;;18.10;95.90;;;;;;6121351;23;20201;-79
2022/11/06 01:20:16;;;;;;;34.07;19.70;;;18.20;95.90;;;;;;6120625;23;20216;-78
2022/11/06 01:22:46;;;;;;;37.40;18.70;;;18.20;96.00;;;;;;6122728;23;20208;-76
2022/11/06 01:25:14;;;;;;;41.23;19.73;;;18.20;95.90;;;;;;6121075;23;20181;-78
2022/11/06 01:27:42;;;;;;;42.00;19.27;;;18.20;96.00;;;;;;6119653;23;20757;-80
2022/11/06 01:30:12;;;;;;;33.77;17.93;;;18.20;96.10;;;;;;6119099;23;20197;-78
2022/11/06 01:32:40;;;;;;;37.80;17.70;;;18.10;96.00;;;;;;6122278;23;20169;-78
2022/11/06 01:35:09;;;;;;;39.50;18.57;;;18.20;95.90;;;;;;6121509;23;20200;-75
2022/11/06 01:37:37;;;;;;;36.13;17.97;;;18.10;95.90;;;;;;6121894;23;20173;-78
2022/11/06 01:40:07;;;;;;;41.67;20.47;;;18.10;96.00;;;;;;6121149;23;20177;-77
2022/11/06 01:42:36;;;;;;;37.03;16.63;;;18.10;96.10;;;;;;6123260;23;20162;-77
2022/11/06 01:45:29;;;;;;;30.87;16.80;;;18.10;96.10;;;;;;6123728;23;20177;-78
2022/11/06 01:47:58;;;;;;;37.33;17.20;;;18.10;96.00;;;;;;6121347;23;20674;-80
2022/11/06 01:50:27;;;;;;;36.80;17.33;;;18.10;96.00;;;;;;6121753;23;20220;-78
2022/11/06 01:52:59;;;;;;;31.03;16.67;;;18.10;96.10;;;;;;6122520;23;20174;-75
2022/11/06 01:55:32;;;;;;;31.97;16.50;;;18.10;96.10;;;;;;6121641;23;20188;-76
2022/11/06 01:58:02;;;;;;;33.07;16.13;;;18.10;96.10;;;;;;6121947;23;20166;-79
2022/11/06 02:00:31;;;;;;;28.93;15.93;;;18.10;96.00;;;;;;6118034;23;20538;-76
2022/11/06 02:03:00;;;;;;;36.80;16.93;;;18.10;96.10;;;;;;6122808;23;20243;-78
2022/11/06 02:05:29;;;;;;;32.40;16.53;;;18.10;96.00;;;;;;6123126;23;20255;-78
2022/11/06 02:07:59;;;;;;;26.33;14.03;;;18.10;96.00;;;;;;6123054;23;20177;-75
2022/11/06 02:10:29;;;;;;;31.13;14.37;;;18.00;95.90;;;;;;6120376;23;20236;-77
2022/11/06 02:13:12;;;;;;;27.90;14.40;;;18.00;95.90;;;;;;6122332;23;20220;-77
2022/11/06 02:15:48;;;;;;;28.10;14.37;;;18.00;95.90;;;;;;6119336;23;20293;-78
2022/11/06 02:18:30;;;;;;;28.80;14.83;;;18.00;95.90;;;;;;6120236;23;20165;-75
2022/11/06 02:21:15;;;;;;;29.07;14.37;;;18.00;95.90;;;;;;6120435;23;20161;-79
2022/11/06 02:24:00;;;;;;;33.63;14.13;;;18.00;95.80;;;;;;6123320;23;20503;-79
2022/11/06 02:26:52;;;;;;;26.23;14.37;;;18.00;95.80;;;;;;6122678;23;20244;-77
2022/11/06 02:29:26;;;;;;;30.30;14.00;;;17.90;95.90;;;;;;6120514;23;20201;-78
2022/11/06 02:31:59;;;;;;;32.70;14.17;;;18.00;95.90;;;;;;6119342;23;20165;-79
2022/11/06 02:34:29;;;;;;;29.37;14.70;;;17.90;95.90;;;;;;6121168;23;20161;-77
2022/11/06 02:37:02;;;;;;;30.63;13.50;;;18.00;95.90;;;;;;6124176;23;20173;-76
2022/11/06 02:39:32;;;;;;;31.37;14.70;;;18.00;95.90;;;;;;6122143;23;20492;-79
2022/11/06 02:42:04;;;;;;;31.07;14.57;;;18.00;95.90;;;;;;6122563;23;20161;-77
2022/11/06 02:44:36;;;;;;;37.40;15.27;;;17.90;95.80;;;;;;6122071;23;20165;-75
2022/11/06 02:47:08;;;;;;;33.23;15.33;;;17.90;95.90;;;;;;6121310;23;20165;-77
2022/11/06 02:49:40;;;;;;;26.57;15.07;;;18.00;95.90;;;;;;6120607;23;20224;-77
2022/11/06 02:52:14;;;;;;;29.20;14.40;;;18.00;95.80;;;;;;6121591;23;20598;-79
2022/11/06 02:54:47;;;;;;;32.93;15.03;;;18.00;95.70;;;;;;6120555;23;20220;-78
2022/11/06 02:57:19;;;;;;;30.67;16.30;;;18.00;95.70;;;;;;6121398;23;20381;-79
2022/11/06 02:59:52;;;;;;;31.93;16.57;;;18.10;95.80;;;;;;6121855;23;20216;-79
2022/11/06 03:02:25;;;;;;;36.80;15.37;;;18.00;95.80;;;;;;6121557;23;20161;-80
2022/11/06 03:04:59;;;;;;;28.57;14.03;;;18.00;95.80;;;;;;6120473;23;20586;-76
2022/11/06 03:07:34;;;;;;;34.07;15.17;;;18.00;95.90;;;;;;6122606;23;20184;-78
2022/11/06 03:10:03;;;;;;;25.13;13.80;;;18.00;95.90;;;;;;6122887;23;20161;-78
2022/11/06 03:12:38;;;;;;;32.87;15.63;;;17.90;95.90;;;;;;6122268;23;20173;-78
2022/11/06 03:15:16;;;;;;;33.40;15.50;;;17.90;95.90;;;;;;6123125;23;20189;-78
2022/11/06 03:17:50;;;;;;;38.87;16.23;;;18.00;95.90;;;;;;6124161;23;20244;-79
2022/11/06 03:20:24;;;;;;;36.80;17.17;;;18.00;95.80;;;;;;6122234;23;20233;-77
2022/11/06 03:22:58;;;;;;;33.43;16.73;;;18.00;95.90;;;;;;6121815;23;20220;-78
2022/11/06 03:25:34;;;;;;;39.77;18.10;;;18.00;96.00;;;;;;6123516;23;20162;-79
2022/11/06 03:28:08;;;;;;;37.80;18.70;;;18.00;96.00;;;;;;6123319;23;20248;-76
2022/11/06 03:30:40;;;;;;;33.57;18.20;;;18.00;96.00;;;;;;6122169;23;20164;-76
2022/11/06 03:33:13;;;;;;;45.90;19.43;;;18.00;96.00;;;;;;6122621;23;20162;-76
2022/11/06 03:35:47;;;;;;;38.97;18.80;;;18.00;96.00;;;;;;6122937;23;20193;-76
2022/11/06 03:38:20;;;;;;;33.33;18.60;;;18.00;95.90;;;;;;6125005;23;20165;-77
2022/11/06 03:40:53;;;;;;;36.07;17.57;;;18.00;95.90;;;;;;6122012;23;20549;-76
2022/11/06 03:43:26;;;;;;;36.00;17.67;;;18.00;96.00;;;;;;6121526;23;20161;-77
2022/11/06 03:45:57;;;;;;;34.53;17.10;;;18.00;96.00;;;;;;6123398;23;20216;-79
2022/11/06 03:48:32;;;;;;;33.73;17.60;;;18.00;95.90;;;;;;6124286;23;20173;-76
2022/11/06 03:51:04;;;;;;;36.03;17.10;;;18.00;96.00;;;;;;6122346;23;20184;-77
2022/11/06 03:53:41;;;;;;;32.27;16.40;;;18.00;96.00;;;;;;6121243;23;20212;-76
2022/11/06 03:56:14;;;;;;;34.10;16.30;;;18.10;96.00;;;;;;6124145;23;20189;-76
2022/11/06 03:58:48;;;;;;;34.63;16.20;;;18.00;95.90;;;;;;6123954;23;20220;-78
2022/11/06 04:01:21;;;;;;;33.53;16.47;;;18.10;95.90;;;;;;6119901;23;20628;-77
2022/11/06 04:03:54;;;;;;;29.03;16.40;;;18.10;95.90;;;;;;6120841;23;20166;-78
2022/11/06 04:06:26;;;;;;;33.00;17.10;;;18.00;95.90;;;;;;6123563;23;20161;-78
2022/11/06 04:14:37;;;;;;;29.57;15.70;;;18.10;95.70;;;;;;6121330;23;20209;-76
2022/11/06 04:17:09;;;;;;;29.80;16.77;;;18.00;95.80;;;;;;6123630;23;20185;-76
2022/11/06 04:19:38;;;;;;;33.77;17.10;;;18.00;95.80;;;;;;6122802;23;20165;-76
2022/11/06 04:22:23;;;;;;;39.13;15.87;;;18.00;95.80;;;;;;6124760;23;20177;-76
2022/11/06 04:28:00;;;;;;;31.17;15.27;;;18.00;95.90;;;;;;6121829;23;20201;-77
2022/11/06 04:30:33;;;;;;;31.80;16.20;;;18.00;95.90;;;;;;6119277;23;20220;-76
2022/11/06 04:33:07;;;;;;;30.97;15.10;;;18.00;95.90;;;;;;6122032;23;20284;-79
2022/11/06 04:35:48;;;;;;;39.03;16.67;;;18.00;95.90;;;;;;6121528;23;20170;-78
2022/11/06 04:38:26;;;;;;;27.07;14.77;;;18.00;95.80;;;;;;6122373;23;20161;-80
2022/11/06 04:41:02;;;;;;;26.73;15.30;;;18.00;95.90;;;;;;6121750;23;20753;-78
2022/11/06 04:43:40;;;;;;;27.13;14.30;;;18.00;95.80;;;;;;6124899;23;20164;-79
2022/11/06 04:46:14;;;;;;;30.80;15.57;;;18.00;95.70;;;;;;6122396;23;20270;-75
2022/11/06 04:48:43;;;;;;;30.23;15.00;;;18.00;95.70;;;;;;6122496;23;20221;-79
2022/11/06 04:51:13;;;;;;;28.43;14.67;;;18.00;95.70;;;;;;6120239;23;20257;-75
2022/11/06 04:53:43;;;;;;;35.00;14.87;;;18.00;95.70;;;;;;6121546;23;20162;-76
2022/11/06 04:56:13;;;;;;;30.73;15.13;;;18.00;95.80;;;;;;6121539;23;20201;-78
2022/11/06 04:58:48;;;;;;;27.50;14.83;;;18.00;95.70;;;;;;6123382;23;20496;-81
2022/11/06 05:01:18;;;;;;;26.77;13.90;;;18.00;95.70;;;;;;6120488;23;20177;-78
2022/11/06 05:03:46;;;;;;;27.37;13.77;;;18.00;95.60;;;;;;6120721;23;20161;-78
2022/11/06 05:06:15;;;;;;;36.20;13.63;;;18.00;95.70;;;;;;6121234;23;20200;-78
2022/11/06 05:08:44;;;;;;;33.97;14.30;;;18.00;95.60;;;;;;6123113;23;20170;-76
2022/11/06 05:11:13;;;;;;;30.27;13.27;;;18.10;95.70;;;;;;6124290;23;20220;-80
2022/11/06 05:13:41;;;;;;;31.43;14.23;;;18.10;95.70;;;;;;6121555;23;20177;-78
2022/11/06 05:16:09;;;;;;;27.83;12.50;;;18.10;95.70;;;;;;6119512;23;20271;-76
2022/11/06 05:18:39;;;;;;;34.77;14.83;;;18.10;95.70;;;;;;6120568;23;20204;-77
2022/11/06 05:23:53;;;;;;;30.87;13.87;;;18.10;95.60;;;;;;6120984;23;20622;-77
2022/11/06 05:26:21;;;;;;;32.10;13.77;;;18.10;95.60;;;;;;6122551;23;20523;-79
2022/11/06 05:28:49;;;;;;;27.83;12.93;;;18.00;95.60;;;;;;6118006;23;20197;-77
2022/11/06 05:31:18;;;;;;;28.10;13.47;;;18.10;95.60;;;;;;6121891;23;20228;-78
2022/11/06 05:33:47;;;;;;;26.00;12.90;;;18.10;95.70;;;;;;6120936;23;20180;-77
2022/11/06 05:36:16;;;;;;;25.77;13.00;;;18.10;95.70;;;;;;6123733;23;20252;-75
2022/11/06 05:38:44;;;;;;;23.80;12.30;;;18.10;95.70;;;;;;6119606;23;20210;-77
2022/11/06 05:41:12;;;;;;;29.67;12.83;;;18.10;95.60;;;;;;6123149;23;20174;-77
2022/11/06 05:43:41;;;;;;;36.73;14.30;;;18.10;95.60;;;;;;6123127;23;20208;-77
2022/11/06 05:46:09;;;;;;;24.00;12.07;;;18.10;95.60;;;;;;6120862;23;20234;-76
2022/11/06 05:48:58;;;;;;;22.33;11.97;;;18.10;95.60;;;;;;6120397;23;20181;-77
2022/11/06 05:51:27;;;;;;;20.77;12.07;;;18.10;95.60;;;;;;6123955;23;20569;-76
2022/11/06 05:53:55;;;;;;;23.50;12.00;;;18.10;95.50;;;;;;6123054;23;20244;-76
2022/11/06 05:56:24;;;;;;;30.23;12.40;;;18.10;95.60;;;;;;6121079;23;20193;-77
2022/11/06 05:58:52;;;;;;;27.93;11.57;;;18.10;95.50;;;;;;6119146;23;20173;-76
2022/11/06 06:01:20;;;;;;;24.23;12.37;;;18.10;95.50;;;;;;6119439;23;20643;-76
2022/11/06 06:03:49;;;;;;;27.70;12.20;;;18.20;95.50;;;;;;6121059;23;20543;-76
2022/11/06 06:06:20;;;;;;;22.70;11.50;;;18.10;95.50;;;;;;6121360;23;20209;-76
2022/11/06 06:08:48;;;;;;;18.43;9.80;;;18.10;95.40;;;;;;6121456;23;20320;-76
2022/11/06 06:11:16;;;;;;;26.17;11.93;;;18.10;95.50;;;;;;6120221;23;20608;-79
2022/11/06 06:13:45;;;;;;;20.33;11.53;;;18.10;95.40;;;;;;6123877;23;20236;-77
2022/11/06 06:16:13;;;;;;;24.80;11.60;;;18.10;95.50;;;;;;6120174;23;20172;-76
2022/11/06 06:18:41;;;;;;;26.73;12.60;;;18.10;95.50;;;;;;6120862;23;20562;-80
2022/11/06 06:21:09;;;;;;;28.73;11.73;;;18.10;95.50;;;;;;6120256;23;20224;-77
2022/11/06 06:23:39;;;;;;;26.13;11.07;;;18.10;95.40;;;;;;6122954;23;20177;-76
2022/11/06 06:26:08;;;;;;;28.27;11.07;;;18.20;95.40;;;;;;6121288;23;20173;-76
2022/11/06 06:28:36;;;;;;;25.20;11.27;;;18.20;95.30;;;;;;6120092;23;20705;-78
2022/11/06 06:31:05;;;;;;;23.20;10.43;;;18.20;95.40;;;;;;6117137;23;20177;-77
2022/11/06 06:33:35;;;;;;;18.67;10.07;;;18.20;95.30;;;;;;6122097;23;20173;-79
2022/11/06 06:36:05;;;;;;;22.40;10.57;;;18.20;95.20;;;;;;6120502;23;20180;-77
2022/11/06 06:38:33;;;;;;;22.90;10.37;;;18.20;95.20;;;;;;6119705;23;20232;-75
2022/11/06 06:41:04;;;;;;;24.73;11.30;;;18.20;95.20;;;;;;6122814;23;20674;-77
2022/11/06 06:43:32;;;;;;;20.77;10.33;;;18.20;95.10;;;;;;6125448;23;20165;-77
2022/11/06 06:46:02;;;;;;;27.70;11.10;;;18.20;95.00;;;;;;6122977;23;20181;-76
2022/11/06 06:48:30;;;;;;;21.80;9.17;;;18.20;95.00;;;;;;6122773;23;20646;-77
2022/11/06 06:51:00;;;;;;;27.07;10.40;;;18.20;95.00;;;;;;6122514;23;20188;-76
2022/11/06 06:53:29;;;;;;;19.50;9.40;;;18.20;94.90;;;;;;6124916;23;20177;-79
2022/11/06 06:55:59;;;;;;;17.57;10.07;;;18.20;94.90;;;;;;6122732;23;20174;-77
2022/11/06 06:58:29;;;;;;;17.83;10.43;;;18.30;94.90;;;;;;6121951;23;20681;-77
2022/11/06 07:01:00;;;;;;;23.53;11.00;;;18.30;94.90;;;;;;6119158;23;20173;-75
2022/11/06 07:03:29;;;;;;;24.30;9.77;;;18.30;94.90;;;;;;6123303;23;20615;-76
2022/11/06 07:05:58;;;;;;;27.27;10.73;;;18.30;94.80;;;;;;6121501;23;20548;-77
2022/11/06 07:08:27;;;;;;;24.40;11.60;;;18.40;94.80;;;;;;6123786;23;20472;-75
2022/11/06 07:11:00;;;;;;;22.00;10.27;;;18.40;94.80;;;;;;6121610;23;20173;-77
2022/11/06 07:13:30;;;;;;;20.80;10.07;;;18.40;94.80;;;;;;6120697;23;20622;-76
2022/11/06 07:16:04;;;;;;;20.37;9.57;;;18.40;94.70;;;;;;6121871;23;20156;-76
2022/11/06 07:18:33;;;;;;;21.53;10.03;;;18.40;94.70;;;;;;6120215;23;20212;-75
2022/11/06 07:21:03;;;;;;;21.40;10.50;;;18.40;94.60;;;;;;6123334;23;20535;-76
2022/11/06 07:23:32;;;;;;;19.03;10.37;;;18.40;94.60;;;;;;6121286;23;20493;-76
2022/11/06 07:26:00;;;;;;;23.97;10.20;;;18.40;94.60;;;;;;6123714;23;20173;-77
2022/11/06 07:28:30;;;;;;;20.17;10.63;;;18.40;94.60;;;;;;6121196;23;20208;-76
2022/11/06 07:30:59;;;;;;;16.33;9.77;;;18.40;94.50;;;;;;6123755;23;20173;-77
2022/11/06 07:33:28;;;;;;;25.90;10.57;;;18.40;94.50;;;;;;6123745;23;20180;-75
2022/11/06 07:36:01;;;;;;;22.17;10.10;;;18.40;94.40;;;;;;6123900;23;20180;-76
2022/11/06 07:38:29;;;;;;;23.93;10.87;;;18.50;94.40;;;;;;6121950;23;20560;-75
2022/11/06 07:41:01;;;;;;;18.40;10.77;;;18.50;94.30;;;;;;6122997;23;20201;-76
2022/11/06 07:43:31;;;;;;;19.47;9.80;;;18.50;94.30;;;;;;6124237;23;20161;-76
2022/11/06 07:46:00;;;;;;;20.63;10.50;;;18.50;94.30;;;;;;6118877;23;20567;-76
2022/11/06 07:48:29;;;;;;;20.57;9.50;;;18.50;94.20;;;;;;6119409;23;20205;-76
2022/11/06 07:50:58;;;;;;;21.57;10.03;;;18.50;94.20;;;;;;6124633;23;20174;-77
2022/11/06 07:53:27;;;;;;;18.13;9.47;;;18.60;94.20;;;;;;6121189;23;20178;-77
2022/11/06 07:55:56;;;;;;;22.33;9.80;;;18.60;94.10;;;;;;6121501;23;20177;-77
2022/11/06 07:58:25;;;;;;;18.53;9.47;;;18.60;94.00;;;;;;6120509;23;20193;-76
2022/11/06 08:00:56;;;;;;;19.20;9.07;;;18.60;94.00;;;;;;6120111;23;20227;-76
2022/11/06 08:03:25;;;;;;;20.30;9.83;;;18.70;94.00;;;;;;6115461;23;20197;-78
2022/11/06 08:05:54;;;;;;;21.23;9.80;;;18.70;93.80;;;;;;6122928;23;20184;-78
2022/11/06 08:08:22;;;;;;;20.60;9.07;;;18.80;93.80;;;;;;6121560;23;20543;-80
2022/11/06 08:10:52;;;;;;;15.40;9.23;;;18.80;93.80;;;;;;6121214;23;20220;-78
2022/11/06 08:13:21;;;;;;;21.02;10.68;;;18.80;93.70;;;;;;6120135;23;20430;-80
2022/11/06 08:15:49;;;;;;;20.67;9.17;;;18.80;93.70;;;;;;6123819;23;20189;-77
2022/11/06 08:18:18;;;;;;;22.33;9.70;;;18.80;93.50;;;;;;6122702;23;20200;-77
2022/11/06 08:20:47;;;;;;;17.47;9.67;;;18.90;93.50;;;;;;6123539;23;20173;-77
2022/11/06 08:23:15;;;;;;;16.73;9.47;;;18.90;93.60;;;;;;6122877;23;20694;-77
2022/11/06 08:25:43;;;;;;;21.50;10.00;;;18.90;93.50;;;;;;6123693;23;20224;-75
2022/11/06 08:28:12;;;;;;;17.13;9.10;;;18.90;93.50;;;;;;6122649;23;20204;-77
2022/11/06 08:30:40;;;;;;;19.05;9.88;;;19.00;93.40;;;;;;6121733;23;20482;-77
2022/11/06 08:33:09;;;;;;;22.27;9.52;;;19.00;93.20;;;;;;6124370;23;20173;-78
2022/11/06 08:35:38;;;;;;;19.43;9.47;;;19.10;93.20;;;;;;6124352;23;20298;-74
2022/11/06 08:38:07;;;;;;;20.77;8.32;;;19.10;93.10;;;;;;6122704;23;20595;-76
2022/11/06 08:40:37;;;;;;;18.90;9.73;;;19.10;93.00;;;;;;6117964;23;20173;-76
2022/11/06 08:43:08;;;;;;;23.65;9.85;;;19.10;92.90;;;;;;6121797;23;20172;-77
2022/11/06 08:45:37;;;;;;;22.67;10.20;;;19.10;93.00;;;;;;6120581;23;20162;-78
2022/11/06 08:48:07;;;;;;;15.67;8.60;;;19.10;92.90;;;;;;6120726;23;20187;-78
2022/11/06 08:50:38;;;;;;;16.63;8.70;;;19.20;92.90;;;;;;6121660;23;20169;-75
2022/11/06 08:53:07;;;;;;;19.17;8.65;;;19.20;92.80;;;;;;6121384;23;20498;-76
2022/11/06 08:55:37;;;;;;;20.40;10.10;;;19.30;92.70;;;;;;6120633;23;20212;-76
2022/11/06 08:58:07;;;;;;;17.25;9.30;;;19.30;92.60;;;;;;6121878;23;20189;-76
2022/11/06 09:00:36;;;;;;;19.80;9.63;;;19.30;92.50;;;;;;6122043;23;20185;-78
2022/11/06 09:03:07;;;;;;;19.20;9.70;;;19.30;92.30;;;;;;6120778;23;20232;-76
2022/11/06 09:05:35;;;;;;;17.80;8.98;;;19.30;92.30;;;;;;6119511;23;20168;-76
2022/11/06 09:08:05;;;;;;;21.38;9.75;;;19.30;92.30;;;;;;6121662;23;20240;-76
2022/11/06 09:10:34;;;;;;;22.13;9.52;;;19.30;92.10;;;;;;6119525;23;20488;-75
2022/11/06 09:13:02;;;;;;;21.03;9.57;;;19.30;92.10;;;;;;6122166;23;20169;-76
2022/11/06 09:15:30;;;;;;;18.00;8.77;;;19.40;92.20;;;;;;6119680;23;20503;-76
2022/11/06 09:17:59;;;;;;;18.80;9.90;;;19.40;92.20;;;;;;6123426;23;20236;-76
2022/11/06 09:20:27;;;;;;;19.90;9.00;;;19.50;92.20;;;;;;6120995;23;20173;-75
2022/11/06 09:23:02;;;;;;;20.63;9.13;;;19.50;92.10;;;;;;6121534;23;20169;-75
2022/11/06 09:25:31;;;;;;;17.37;9.20;;;19.50;92.00;;;;;;6122759;23;20173;-77
2022/11/06 09:28:00;;;;;;;18.33;8.88;;;19.50;91.90;;;;;;6119599;23;20650;-77
2022/11/06 09:30:30;;;;;;;20.27;9.30;;;19.50;91.90;;;;;;6117905;23;20173;-77
2022/11/06 09:33:01;;;;;;;17.57;9.37;;;19.50;91.80;;;;;;6119623;23;20872;-77
2022/11/06 09:35:32;;;;;;;25.37;9.77;;;19.50;91.70;;;;;;6121916;23;20220;-75
2022/11/06 09:38:03;;;;;;;19.43;8.60;;;19.60;91.70;;;;;;6120520;23;20157;-75
2022/11/06 09:40:35;;;;;;;20.42;9.00;;;19.60;91.70;;;;;;6117971;23;20229;-75
2022/11/06 09:43:19;;;;;;;18.48;9.68;;;19.60;91.50;;;;;;6116628;23;20854;-76
2022/11/06 09:46:17;;;;;;;19.73;8.73;;;19.70;91.50;;;;;;6122436;23;20169;-78
2022/11/06 09:48:49;;;;;;;23.53;10.00;;;19.70;91.50;;;;;;6121745;23;20165;-76
2022/11/06 09:51:33;;;;;;;18.10;8.35;;;19.80;91.60;;;;;;6120314;23;20165;-76
2022/11/06 09:54:07;;;;;;;20.50;9.50;;;19.80;91.30;;;;;;6120235;23;20165;-79
2022/11/06 09:56:41;;;;;;;26.38;9.23;;;19.80;91.20;;;;;;6121053;23;20673;-75
2022/11/06 09:59:13;;;;;;;15.07;8.68;;;19.80;91.10;;;;;;6121584;23;20185;-75
2022/11/06 10:01:45;;;;;;;20.15;9.10;;;19.80;91.10;;;;;;6115254;23;20172;-75
2022/11/06 10:04:27;;;;;;;20.75;9.43;;;19.80;91.00;;;;;;6117592;23;20161;-75
2022/11/06 10:06:55;;;;;;;22.25;9.52;;;19.80;90.90;;;;;;6119690;23;20181;-77
2022/11/06 10:09:24;;;;;;;21.33;9.55;;;19.80;90.90;;;;;;6120964;23;20173;-76
2022/11/06 10:12:08;;;;;;;17.52;9.35;;;19.80;91.00;;;;;;6117751;23;20228;-76
2022/11/06 10:14:48;;;;;;;20.88;10.65;;;19.80;90.90;;;;;;6118721;23;20162;-78
2022/11/06 10:17:29;;;;;;;18.17;8.82;;;19.80;90.80;;;;;;6122530;23;20161;-77
2022/11/06 10:20:09;;;;;;;20.17;9.60;;;19.90;90.90;;;;;;6120985;23;20616;-77
2022/11/06 10:22:40;;;;;;;22.42;10.50;;;19.80;90.90;;;;;;6119509;23;20161;-76
2022/11/06 10:25:19;;;;;;;17.40;9.48;;;19.90;90.80;;;;;;6121413;23;20161;-78
2022/11/06 10:27:57;;;;;;;19.90;10.20;;;19.90;90.70;;;;;;6119274;23;20392;-77
2022/11/06 10:30:33;;;;;;;17.48;9.15;;;20.00;90.80;;;;;;6124080;23;20165;-77
2022/11/06 10:33:20;;;;;;;22.75;9.73;;;20.00;90.80;;;;;;6121960;23;20172;-78
2022/11/06 10:35:54;;;;;;;22.00;10.43;;;20.00;90.70;;;;;;6121460;23;20223;-80
2022/11/06 10:38:25;;;;;;;20.42;9.75;;;20.00;90.60;;;;;;6121715;23;20215;-76
2022/11/06 10:40:55;;;;;;;20.97;10.13;;;20.10;90.70;;;;;;6121410;23;20384;-76
2022/11/06 10:43:35;;;;;;;18.33;9.80;;;20.20;90.70;;;;;;6122028;23;20428;-76
2022/11/06 10:46:12;;;;;;;24.70;9.95;;;20.20;90.60;;;;;;6121247;23;20208;-77
2022/11/06 10:48:46;;;;;;;20.13;8.75;;;20.30;90.60;;;;;;6122941;23;20188;-77
2022/11/06 10:51:28;;;;;;;20.08;9.38;;;20.30;90.40;;;;;;6120925;23;20220;-76
2022/11/06 10:54:08;;;;;;;18.63;9.50;;;20.40;90.30;;;;;;6119941;23;20165;-76
2022/11/06 10:56:49;;;;;;;21.52;8.93;;;20.40;90.20;;;;;;6121704;23;20161;-76
2022/11/06 10:59:19;;;;;;;16.08;8.00;;;20.40;90.00;;;;;;6123253;23;20244;-78
2022/11/06 11:01:48;;;;;;;19.88;9.57;;;20.40;90.00;;;;;;6121725;23;20166;-76
2022/11/06 11:04:16;;;;;;;24.92;9.20;;;20.40;89.80;;;;;;6121232;23;21030;-77
2022/11/06 11:06:45;;;;;;;21.30;8.18;;;20.50;89.90;;;;;;6123592;23;20180;-76
2022/11/06 11:09:31;;;;;;;18.48;9.73;;;20.60;90.00;;;;;;6121926;23;20560;-76
2022/11/06 11:12:00;;;;;;;22.20;9.40;;;20.60;89.80;;;;;;6123537;23;20185;-76
2022/11/06 11:14:31;;;;;;;14.45;8.57;;;20.60;89.60;;;;;;6123384;23;20172;-76
2022/11/06 11:17:01;;;;;;;15.70;9.55;;;20.70;89.20;;;;;;6124498;23;20162;-76
2022/11/06 11:19:40;;;;;;;18.08;8.65;;;20.70;88.90;;;;;;6117962;23;20650;-76
2022/11/06 11:22:19;;;;;;;20.10;9.38;;;20.70;89.10;;;;;;6122379;23;20164;-75
2022/11/06 11:25:01;;;;;;;19.02;9.65;;;20.80;88.90;;;;;;6123398;23;20161;-75
2022/11/06 11:27:32;;;;;;;18.40;8.95;;;20.80;88.80;;;;;;6122059;23;20161;-76
2022/11/06 11:30:04;;;;;;;13.02;8.68;;;20.90;89.70;;;;;;6123460;23;20168;-74
2022/11/06 11:32:33;;;;;;;19.45;8.52;;;21.00;88.60;;;;;;6123580;23;20161;-79
2022/11/06 11:35:11;;;;;;;17.15;8.52;;;21.10;88.40;;;;;;6122549;23;20647;-78
2022/11/06 11:37:40;;;;;;;23.17;10.02;;;21.10;88.20;;;;;;6123082;23;20208;-76
2022/11/06 11:40:34;;;;;;;18.70;8.40;;;21.20;87.10;;;;;;6124904;23;20248;-77
2022/11/06 11:43:21;;;;;;;15.38;8.68;;;21.30;87.30;;;;;;6124772;23;20212;-75
2022/11/06 11:46:15;;;;;;;19.20;8.07;;;21.40;86.90;;;;;;6123805;23;20224;-76
2022/11/06 11:48:45;;;;;;;18.90;9.50;;;21.40;86.00;;;;;;6121460;23;20486;-77
2022/11/06 11:51:26;;;;;;;18.98;9.43;;;21.30;85.70;;;;;;6121002;23;20169;-76
2022/11/06 11:53:58;;;;;;;16.50;8.27;;;21.30;85.70;;;;;;6122810;23;20169;-76
2022/11/06 11:56:28;;;;;;;23.30;9.32;;;21.30;85.80;;;;;;6123773;23;21327;-77
2022/11/06 11:59:19;;;;;;;26.38;8.15;;;21.30;85.20;;;;;;6121729;23;20252;-76
2022/11/06 12:01:49;;;;;;;16.60;7.68;;;21.40;85.70;;;;;;6121469;23;20547;-76
2022/11/06 12:04:22;;;;;;;14.43;8.45;;;21.40;85.40;;;;;;6124169;23;20162;-78
2022/11/06 12:06:57;;;;;;;17.05;7.40;;;21.40;84.90;;;;;;6121157;23;20165;-76
2022/11/06 12:09:27;;;;;;;13.82;7.50;;;21.40;84.80;;;;;;6123427;23;20208;-76
2022/11/06 12:11:58;;;;;;;15.77;7.50;;;21.50;84.40;;;;;;6124305;23;20177;-76
2022/11/06 12:14:37;;;;;;;15.07;7.35;;;21.40;83.30;;;;;;6123914;23;20196;-78
2022/11/06 12:17:17;;;;;;;14.95;7.78;;;21.40;83.70;;;;;;6123198;23;20208;-76
2022/11/06 12:19:51;;;;;;;15.82;7.68;;;21.40;83.50;;;;;;6119700;23;20248;-77
2022/11/06 12:22:26;;;;;;;18.40;7.50;;;21.40;83.40;;;;;;6123682;23;20594;-77
2022/11/06 12:25:00;;;;;;;17.90;8.30;;;21.30;83.00;;;;;;6123663;23;20167;-76
2022/11/06 12:27:34;;;;;;;16.05;8.20;;;21.30;82.90;;;;;;6122901;23;20232;-75
2022/11/06 12:30:06;;;;;;;14.13;7.05;;;21.30;83.00;;;;;;6120886;23;20189;-77
2022/11/06 12:32:47;;;;;;;15.40;7.53;;;21.30;81.70;;;;;;6123663;23;20213;-80
2022/11/06 12:35:24;;;;;;;20.15;7.53;;;21.20;81.90;;;;;;6124538;23;20619;-76
2022/11/06 12:38:12;;;;;;;17.20;6.75;;;21.20;81.60;;;;;;6122809;23;20192;-75
2022/11/06 12:40:45;;;;;;;25.73;7.82;;;21.20;81.70;;;;;;6122407;23;20189;-76
2022/11/06 12:43:19;;;;;;;20.50;7.20;;;21.20;81.90;;;;;;6122259;23;20604;-76
2022/11/06 12:46:17;;;;;;;16.75;6.88;;;21.10;81.40;;;;;;6123258;23;20161;-76
2022/11/06 12:49:13;;;;;;;19.55;7.45;;;21.10;81.50;;;;;;6121118;23;20162;-79
2022/11/06 12:51:54;;;;;;;19.98;9.00;;;21.10;81.50;;;;;;6121553;23;20236;-77
2022/11/06 12:54:39;;;;;;;16.38;7.70;;;21.10;81.80;;;;;;6124396;23;20161;-76
2022/11/06 12:57:18;;;;;;;14.45;7.68;;;21.10;82.00;;;;;;6124445;23;20162;-76
2022/11/06 13:00:00;;;;;;;17.23;7.32;;;21.10;82.00;;;;;;6124915;23;20162;-77
2022/11/06 13:02:41;;;;;;;15.10;7.10;;;21.10;82.20;;;;;;6120357;23;20161;-76
2022/11/06 13:05:16;;;;;;;18.90;7.80;;;21.00;81.70;;;;;;6122598;23;20197;-77
2022/11/06 13:08:08;;;;;;;18.83;7.93;;;21.00;82.00;;;;;;6114931;23;20165;-78
2022/11/06 13:10:44;;;;;;;20.35;8.13;;;21.00;82.20;;;;;;6118656;23;20254;-78